sensor_id;sensor_type;location;lat;lon;timestamp;pressure;altitude;pressure_sealevel;temperature;humidity
76864;BME280;65834;52.364;9.754;2023-05-07T00:00:52;101352.66;;;12.27;67.54
76864;BME280;65834;52.364;9.754;2023-05-07T00:03:21;101363.66;;;12.26;67.25
76864;BME280;65834;52.364;9.754;2023-05-07T00:05:51;101351.81;;;12.27;67.40
76864;BME280;65834;52.364;9.754;2023-05-07T00:08:24;101343.69;;;12.19;67.65
76864;BME280;65834;52.364;9.754;2023-05-07T00:10:54;101338.97;;;12.21;67.32
76864;BME280;65834;52.364;9.754;2023-05-07T00:13:23;101344.38;;;12.21;67.53
76864;BME280;65834;52.364;9.754;2023-05-07T00:15:54;101349.50;;;12.16;67.61
76864;BME280;65834;52.364;9.754;2023-05-07T00:18:23;101351.84;;;12.19;67.45
76864;BME280;65834;52.364;9.754;2023-05-07T00:20:53;101345.56;;;12.18;67.62
76864;BME280;65834;52.364;9.754;2023-05-07T00:23:25;101342.41;;;12.15;67.40
76864;BME280;65834;52.364;9.754;2023-05-07T00:25:56;101347.47;;;12.18;67.32
76864;BME280;65834;52.364;9.754;2023-05-07T00:28:25;101344.25;;;12.14;67.74
76864;BME280;65834;52.364;9.754;2023-05-07T00:30:55;101340.34;;;12.17;67.51
76864;BME280;65834;52.364;9.754;2023-05-07T00:33:24;101329.22;;;12.04;67.99
76864;BME280;65834;52.364;9.754;2023-05-07T00:35:55;101330.94;;;12.05;67.82
76864;BME280;65834;52.364;9.754;2023-05-07T00:38:27;101329.56;;;12.09;67.92
76864;BME280;65834;52.364;9.754;2023-05-07T00:40:56;101324.50;;;12.06;67.84
76864;BME280;65834;52.364;9.754;2023-05-07T00:43:26;101318.75;;;12.01;67.93
76864;BME280;65834;52.364;9.754;2023-05-07T00:45:56;101318.44;;;11.95;68.20
76864;BME280;65834;52.364;9.754;2023-05-07T00:48:26;101312.84;;;11.97;68.36
76864;BME280;65834;52.364;9.754;2023-05-07T00:50:56;101322.66;;;11.98;68.40
76864;BME280;65834;52.364;9.754;2023-05-07T00:53:28;101325.38;;;11.98;67.94
76864;BME280;65834;52.364;9.754;2023-05-07T00:55:59;101325.91;;;11.93;68.51
76864;BME280;65834;52.364;9.754;2023-05-07T00:58:29;101322.66;;;11.98;68.10
76864;BME280;65834;52.364;9.754;2023-05-07T01:00:59;101321.53;;;11.92;68.49
76864;BME280;65834;52.364;9.754;2023-05-07T01:03:28;101318.44;;;11.95;68.19
76864;BME280;65834;52.364;9.754;2023-05-07T01:05:59;101318.63;;;11.94;68.51
76864;BME280;65834;52.364;9.754;2023-05-07T01:08:33;101319.47;;;11.94;68.22
76864;BME280;65834;52.364;9.754;2023-05-07T01:11:06;101324.25;;;11.84;68.50
76864;BME280;65834;52.364;9.754;2023-05-07T01:13:39;101323.19;;;11.93;68.39
76864;BME280;65834;52.364;9.754;2023-05-07T01:16:09;101330.50;;;11.93;68.61
76864;BME280;65834;52.364;9.754;2023-05-07T01:18:39;101323.75;;;11.89;68.49
76864;BME280;65834;52.364;9.754;2023-05-07T01:21:11;101341.22;;;11.86;68.95
76864;BME280;65834;52.364;9.754;2023-05-07T01:23:44;101332.03;;;11.87;68.58
76864;BME280;65834;52.364;9.754;2023-05-07T01:26:13;101335.59;;;11.88;68.59
76864;BME280;65834;52.364;9.754;2023-05-07T01:28:44;101334.59;;;11.89;68.77
76864;BME280;65834;52.364;9.754;2023-05-07T01:31:16;101341.03;;;11.88;68.79
76864;BME280;65834;52.364;9.754;2023-05-07T01:33:48;101331.22;;;11.87;68.63
76864;BME280;65834;52.364;9.754;2023-05-07T01:36:19;101332.09;;;11.79;68.86
76864;BME280;65834;52.364;9.754;2023-05-07T01:38:55;101338.50;;;11.86;68.47
76864;BME280;65834;52.364;9.754;2023-05-07T01:41:25;101328.38;;;11.80;68.81
76864;BME280;65834;52.364;9.754;2023-05-07T01:44:08;101332.44;;;11.76;68.72
76864;BME280;65834;52.364;9.754;2023-05-07T01:46:39;101324.31;;;11.76;68.67
76864;BME280;65834;52.364;9.754;2023-05-07T01:49:09;101333.47;;;11.67;69.20
76864;BME280;65834;52.364;9.754;2023-05-07T01:51:39;101328.72;;;11.69;69.04
76864;BME280;65834;52.364;9.754;2023-05-07T01:54:11;101328.06;;;11.67;68.95
76864;BME280;65834;52.364;9.754;2023-05-07T01:56:42;101319.94;;;11.67;68.97
76864;BME280;65834;52.364;9.754;2023-05-07T01:59:11;101324.03;;;11.71;68.64
76864;BME280;65834;52.364;9.754;2023-05-07T02:01:41;101324.50;;;11.67;68.76
76864;BME280;65834;52.364;9.754;2023-05-07T02:04:11;101326.00;;;11.69;68.67
76864;BME280;65834;52.364;9.754;2023-05-07T02:06:41;101326.00;;;11.69;68.74
76864;BME280;65834;52.364;9.754;2023-05-07T02:09:14;101328.72;;;11.69;68.52
76864;BME280;65834;52.364;9.754;2023-05-07T02:11:46;101331.31;;;11.71;68.54
76864;BME280;65834;52.364;9.754;2023-05-07T02:14:17;101333.81;;;11.72;68.48
76864;BME280;65834;52.364;9.754;2023-05-07T02:16:47;101333.81;;;11.72;68.39
76864;BME280;65834;52.364;9.754;2023-05-07T02:19:17;101335.03;;;11.70;68.36
76864;BME280;65834;52.364;9.754;2023-05-07T02:21:48;101343.00;;;11.71;67.92
76864;BME280;65834;52.364;9.754;2023-05-07T02:24:20;101344.31;;;11.67;68.16
76864;BME280;65834;52.364;9.754;2023-05-07T02:26:49;101352.28;;;11.69;68.03
76864;BME280;65834;52.364;9.754;2023-05-07T02:29:19;101355.69;;;11.71;67.80
76864;BME280;65834;52.364;9.754;2023-05-07T02:31:49;101351.97;;;11.72;67.58
76864;BME280;65834;52.364;9.754;2023-05-07T02:34:19;101357.56;;;11.70;67.45
76864;BME280;65834;52.364;9.754;2023-05-07T02:36:49;101358.22;;;11.64;67.51
76864;BME280;65834;52.364;9.754;2023-05-07T02:39:24;101354.84;;;11.62;67.64
76864;BME280;65834;52.364;9.754;2023-05-07T02:41:53;101356.72;;;11.62;67.57
76864;BME280;65834;52.364;9.754;2023-05-07T02:44:23;101347.09;;;11.59;67.39
76864;BME280;65834;52.364;9.754;2023-05-07T02:46:52;101352.66;;;11.58;67.44
76864;BME280;65834;52.364;9.754;2023-05-07T02:49:22;101349.09;;;11.57;67.45
76864;BME280;65834;52.364;9.754;2023-05-07T02:51:51;101347.28;;;11.50;67.69
76864;BME280;65834;52.364;9.754;2023-05-07T02:54:26;101341.03;;;11.49;67.47
76864;BME280;65834;52.364;9.754;2023-05-07T02:56:55;101350.50;;;11.45;67.96
76864;BME280;65834;52.364;9.754;2023-05-07T02:59:26;101349.16;;;11.49;67.87
76864;BME280;65834;52.364;9.754;2023-05-07T03:01:56;101347.78;;;11.53;67.64
76864;BME280;65834;52.364;9.754;2023-05-07T03:04:26;101348.97;;;11.51;67.67
76864;BME280;65834;52.364;9.754;2023-05-07T03:06:55;101348.50;;;11.47;67.78
76864;BME280;65834;52.364;9.754;2023-05-07T03:09:27;101344.25;;;11.44;67.91
76864;BME280;65834;52.364;9.754;2023-05-07T03:11:57;101346.13;;;11.44;67.78
76864;BME280;65834;52.364;9.754;2023-05-07T03:14:28;101345.50;;;11.34;68.26
76864;BME280;65834;52.364;9.754;2023-05-07T03:16:58;101354.78;;;11.39;67.85
76864;BME280;65834;52.364;9.754;2023-05-07T03:19:27;101350.00;;;11.41;67.92
76864;BME280;65834;52.364;9.754;2023-05-07T03:21:57;101359.03;;;11.34;68.19
76864;BME280;65834;52.364;9.754;2023-05-07T03:24:30;101361.41;;;11.29;68.46
76864;BME280;65834;52.364;9.754;2023-05-07T03:27:00;101355.47;;;11.33;68.21
76864;BME280;65834;52.364;9.754;2023-05-07T03:29:30;101344.13;;;11.30;68.14
76864;BME280;65834;52.364;9.754;2023-05-07T03:31:59;101344.28;;;11.36;67.93
76864;BME280;65834;52.364;9.754;2023-05-07T03:34:29;101335.50;;;11.26;68.36
76864;BME280;65834;52.364;9.754;2023-05-07T03:36:58;101337.72;;;11.31;68.32
76864;BME280;65834;52.364;9.754;2023-05-07T03:39:30;101335.34;;;11.28;68.26
76864;BME280;65834;52.364;9.754;2023-05-07T03:42:00;101340.78;;;11.28;68.32
76864;BME280;65834;52.364;9.754;2023-05-07T03:44:32;101329.78;;;11.21;68.75
76864;BME280;65834;52.364;9.754;2023-05-07T03:47:03;101339.09;;;11.19;68.94
76864;BME280;65834;52.364;9.754;2023-05-07T03:49:33;101336.22;;;11.20;68.86
76864;BME280;65834;52.364;9.754;2023-05-07T03:52:03;101330.13;;;11.18;68.88
76864;BME280;65834;52.364;9.754;2023-05-07T03:54:36;101340.44;;;11.23;68.76
76864;BME280;65834;52.364;9.754;2023-05-07T03:57:05;101328.44;;;11.17;68.84
76864;BME280;65834;52.364;9.754;2023-05-07T03:59:35;101343.47;;;11.20;68.62
76864;BME280;65834;52.364;9.754;2023-05-07T04:02:06;101336.91;;;11.14;68.98
76864;BME280;65834;52.364;9.754;2023-05-07T04:04:35;101336.75;;;11.16;68.75
76864;BME280;65834;52.364;9.754;2023-05-07T04:07:05;101343.31;;;11.21;68.61
76864;BME280;65834;52.364;9.754;2023-05-07T04:09:42;101346.03;;;11.21;68.42
76864;BME280;65834;52.364;9.754;2023-05-07T04:12:11;101349.59;;;11.22;68.41
76864;BME280;65834;52.364;9.754;2023-05-07T04:14:41;101355.34;;;11.19;68.61
76864;BME280;65834;52.364;9.754;2023-05-07T04:17:11;101351.59;;;11.20;68.42
76864;BME280;65834;52.364;9.754;2023-05-07T04:19:40;101357.88;;;11.20;68.46
76864;BME280;65834;52.364;9.754;2023-05-07T04:22:13;101355.34;;;11.19;68.67
76864;BME280;65834;52.364;9.754;2023-05-07T04:24:45;101350.09;;;11.17;68.65
76864;BME280;65834;52.364;9.754;2023-05-07T04:27:15;101354.84;;;11.15;68.48
76864;BME280;65834;52.364;9.754;2023-05-07T04:29:44;101362.63;;;11.18;68.41
76864;BME280;65834;52.364;9.754;2023-05-07T04:32:15;101362.47;;;11.12;68.44
76864;BME280;65834;52.364;9.754;2023-05-07T04:34:45;101361.31;;;11.06;68.68
76864;BME280;65834;52.364;9.754;2023-05-07T04:37:15;101365.19;;;11.12;68.36
76864;BME280;65834;52.364;9.754;2023-05-07T04:39:47;101375.66;;;11.15;68.17
76864;BME280;65834;52.364;9.754;2023-05-07T04:42:16;101371.78;;;11.09;68.55
76864;BME280;65834;52.364;9.754;2023-05-07T04:44:46;101372.97;;;11.07;68.68
76864;BME280;65834;52.364;9.754;2023-05-07T04:47:16;101374.66;;;11.08;68.39
76864;BME280;65834;52.364;9.754;2023-05-07T04:49:46;101374.50;;;11.09;68.32
76864;BME280;65834;52.364;9.754;2023-05-07T04:52:16;101377.88;;;11.11;68.52
76864;BME280;65834;52.364;9.754;2023-05-07T04:54:48;101380.91;;;11.08;68.47
76864;BME280;65834;52.364;9.754;2023-05-07T04:57:17;101383.63;;;11.08;68.33
76864;BME280;65834;52.364;9.754;2023-05-07T04:59:47;101397.84;;;11.10;68.35
76864;BME280;65834;52.364;9.754;2023-05-07T05:02:16;101408.50;;;10.96;68.65
76864;BME280;65834;52.364;9.754;2023-05-07T05:04:46;101393.13;;;11.04;68.60
76864;BME280;65834;52.364;9.754;2023-05-07T05:07:17;101397.69;;;10.96;68.60
76864;BME280;65834;52.364;9.754;2023-05-07T05:09:49;101404.31;;;11.01;68.38
76864;BME280;65834;52.364;9.754;2023-05-07T05:12:19;101404.13;;;11.03;68.18
76864;BME280;65834;52.364;9.754;2023-05-07T05:14:49;101407.16;;;11.00;68.35
76864;BME280;65834;52.364;9.754;2023-05-07T05:17:18;101405.13;;;11.02;68.16
76864;BME280;65834;52.364;9.754;2023-05-07T05:19:48;101395.81;;;10.96;68.01
76864;BME280;65834;52.364;9.754;2023-05-07T05:22:18;101410.72;;;10.92;68.29
76864;BME280;65834;52.364;9.754;2023-05-07T05:24:51;101407.66;;;10.95;67.91
76864;BME280;65834;52.364;9.754;2023-05-07T05:27:21;101412.41;;;11.01;68.01
76864;BME280;65834;52.364;9.754;2023-05-07T05:29:50;101407.66;;;10.95;68.02
76864;BME280;65834;52.364;9.754;2023-05-07T05:32:20;101399.03;;;11.00;67.83
76864;BME280;65834;52.364;9.754;2023-05-07T05:34:53;101408.16;;;10.99;67.85
76864;BME280;65834;52.364;9.754;2023-05-07T05:37:22;101408.69;;;11.02;67.85
76864;BME280;65834;52.364;9.754;2023-05-07T05:39:55;101411.72;;;10.99;67.86
76864;BME280;65834;52.364;9.754;2023-05-07T05:42:27;101411.06;;;10.97;67.74
76864;BME280;65834;52.364;9.754;2023-05-07T05:44:57;101404.31;;;11.01;67.45
76864;BME280;65834;52.364;9.754;2023-05-07T05:47:29;101401.59;;;11.01;67.17
76864;BME280;65834;52.364;9.754;2023-05-07T05:49:59;101408.16;;;10.99;67.36
76864;BME280;65834;52.364;9.754;2023-05-07T05:52:28;101404.47;;;11.00;67.28
76864;BME280;65834;52.364;9.754;2023-05-07T05:55:01;101404.47;;;11.00;67.07
76864;BME280;65834;52.364;9.754;2023-05-07T05:57:31;101418.66;;;11.02;67.04
76864;BME280;65834;52.364;9.754;2023-05-07T06:00:01;101424.06;;;11.02;66.95
76864;BME280;65834;52.364;9.754;2023-05-07T06:02:32;101426.63;;;11.03;67.03
76864;BME280;65834;52.364;9.754;2023-05-07T06:05:03;101424.91;;;11.02;66.82
76864;BME280;65834;52.364;9.754;2023-05-07T06:07:33;101424.91;;;11.02;66.86
76864;BME280;65834;52.364;9.754;2023-05-07T06:10:07;101428.16;;;10.98;66.95
76864;BME280;65834;52.364;9.754;2023-05-07T06:12:37;101422.91;;;10.96;67.03
76864;BME280;65834;52.364;9.754;2023-05-07T06:15:07;101425.25;;;10.99;66.79
76864;BME280;65834;52.364;9.754;2023-05-07T06:17:38;101421.03;;;10.97;66.87
76864;BME280;65834;52.364;9.754;2023-05-07T06:20:09;101424.59;;;10.97;67.24
76864;BME280;65834;52.364;9.754;2023-05-07T06:22:40;101417.84;;;11.01;66.88
76864;BME280;65834;52.364;9.754;2023-05-07T06:25:13;101414.28;;;11.01;66.86
76864;BME280;65834;52.364;9.754;2023-05-07T06:27:43;101422.91;;;10.96;67.12
76864;BME280;65834;52.364;9.754;2023-05-07T06:30:12;101410.06;;;10.98;67.08
76864;BME280;65834;52.364;9.754;2023-05-07T06:32:42;101421.34;;;11.02;66.92
76864;BME280;65834;52.364;9.754;2023-05-07T06:35:13;101414.94;;;11.03;66.90
76864;BME280;65834;52.364;9.754;2023-05-07T06:37:42;101409.38;;;11.04;66.47
76864;BME280;65834;52.364;9.754;2023-05-07T06:40:20;101404.13;;;11.03;66.43
76864;BME280;65834;52.364;9.754;2023-05-07T06:42:49;101416.66;;;11.04;66.39
76864;BME280;65834;52.364;9.754;2023-05-07T06:45:48;101419.66;;;11.09;66.40
76864;BME280;65834;52.364;9.754;2023-05-07T06:48:18;101414.44;;;11.07;66.40
76864;BME280;65834;52.364;9.754;2023-05-07T06:50:54;101422.06;;;11.04;66.39
76864;BME280;65834;52.364;9.754;2023-05-07T06:53:25;101426.28;;;11.06;66.46
76864;BME280;65834;52.364;9.754;2023-05-07T06:55:59;101432.03;;;11.03;66.62
76864;BME280;65834;52.364;9.754;2023-05-07T06:58:29;101442.19;;;11.09;66.38
76864;BME280;65834;52.364;9.754;2023-05-07T07:00:59;101438.28;;;11.12;66.09
76864;BME280;65834;52.364;9.754;2023-05-07T07:03:30;101434.91;;;11.10;66.36
76864;BME280;65834;52.364;9.754;2023-05-07T07:06:00;101429.16;;;11.13;66.52
76864;BME280;65834;52.364;9.754;2023-05-07T07:08:30;101430.66;;;11.15;66.21
76864;BME280;65834;52.364;9.754;2023-05-07T07:11:02;101434.03;;;11.17;66.19
76864;BME280;65834;52.364;9.754;2023-05-07T07:13:32;101446.72;;;11.17;66.16
76864;BME280;65834;52.364;9.754;2023-05-07T07:16:01;101445.56;;;11.19;65.97
76864;BME280;65834;52.364;9.754;2023-05-07T07:18:31;101443.69;;;11.20;66.07
76864;BME280;65834;52.364;9.754;2023-05-07T07:21:01;101452.31;;;11.15;66.35
76864;BME280;65834;52.364;9.754;2023-05-07T07:23:30;101455.34;;;11.20;66.10
76864;BME280;65834;52.364;9.754;2023-05-07T07:26:02;101453.00;;;11.25;65.72
76864;BME280;65834;52.364;9.754;2023-05-07T07:28:33;101460.09;;;11.26;65.64
76864;BME280;65834;52.364;9.754;2023-05-07T07:31:02;101457.03;;;11.29;65.51
76864;BME280;65834;52.364;9.754;2023-05-07T07:33:32;101453.00;;;11.25;65.64
76864;BME280;65834;52.364;9.754;2023-05-07T07:36:02;101450.78;;;11.29;65.47
76864;BME280;65834;52.364;9.754;2023-05-07T07:38:32;101458.91;;;11.29;65.40
76864;BME280;65834;52.364;9.754;2023-05-07T07:41:05;101459.09;;;11.27;65.58
76864;BME280;65834;52.364;9.754;2023-05-07T07:43:35;101465.66;;;11.33;65.50
76864;BME280;65834;52.364;9.754;2023-05-07T07:46:05;101463.66;;;11.35;65.35
76864;BME280;65834;52.364;9.754;2023-05-07T07:48:34;101466.84;;;11.38;65.30
76864;BME280;65834;52.364;9.754;2023-05-07T07:51:04;101465.47;;;11.42;65.05
76864;BME280;65834;52.364;9.754;2023-05-07T07:53:34;101467.34;;;11.50;64.79
76864;BME280;65834;52.364;9.754;2023-05-07T07:56:06;101463.44;;;11.44;64.92
76864;BME280;65834;52.364;9.754;2023-05-07T07:58:36;101461.78;;;11.43;64.93
76864;BME280;65834;52.364;9.754;2023-05-07T08:01:06;101470.22;;;11.49;65.12
76864;BME280;65834;52.364;9.754;2023-05-07T08:03:35;101456.50;;;11.50;65.03
76864;BME280;65834;52.364;9.754;2023-05-07T08:06:05;101463.59;;;11.51;65.11
76864;BME280;65834;52.364;9.754;2023-05-07T08:08:35;101461.72;;;11.60;64.90
76864;BME280;65834;52.364;9.754;2023-05-07T08:11:08;101455.47;;;11.59;64.92
76864;BME280;65834;52.364;9.754;2023-05-07T08:13:38;101469.69;;;11.61;64.92
76864;BME280;65834;52.364;9.754;2023-05-07T08:16:07;101467.81;;;11.62;65.08
76864;BME280;65834;52.364;9.754;2023-05-07T08:18:37;101466.81;;;11.63;64.94
76864;BME280;65834;52.364;9.754;2023-05-07T08:21:07;101460.53;;;11.62;65.04
76864;BME280;65834;52.364;9.754;2023-05-07T08:23:36;101463.75;;;11.66;65.18
76864;BME280;65834;52.364;9.754;2023-05-07T08:26:09;101466.63;;;11.64;65.05
76864;BME280;65834;52.364;9.754;2023-05-07T08:28:39;101464.56;;;11.66;65.02
76864;BME280;65834;52.364;9.754;2023-05-07T08:31:08;101477.78;;;11.69;64.95
76864;BME280;65834;52.364;9.754;2023-05-07T08:33:40;101473.06;;;11.71;65.17
76864;BME280;65834;52.364;9.754;2023-05-07T08:36:09;101472.72;;;11.74;65.17
76864;BME280;65834;52.364;9.754;2023-05-07T08:38:39;101464.75;;;11.81;64.93
76864;BME280;65834;52.364;9.754;2023-05-07T08:41:15;101472.88;;;11.73;65.06
76864;BME280;65834;52.364;9.754;2023-05-07T08:43:48;101469.13;;;11.82;64.88
76864;BME280;65834;52.364;9.754;2023-05-07T08:46:20;101468.13;;;11.83;64.69
76864;BME280;65834;52.364;9.754;2023-05-07T08:48:53;101486.59;;;11.79;64.78
76864;BME280;65834;52.364;9.754;2023-05-07T08:51:23;101485.41;;;11.82;64.68
76864;BME280;65834;52.364;9.754;2023-05-07T08:53:53;101488.28;;;11.80;64.72
76864;BME280;65834;52.364;9.754;2023-05-07T08:56:31;101494.03;;;11.85;64.85
76864;BME280;65834;52.364;9.754;2023-05-07T08:59:01;101486.75;;;11.86;64.61
76864;BME280;65834;52.364;9.754;2023-05-07T09:01:30;101486.44;;;11.81;64.63
76864;BME280;65834;52.364;9.754;2023-05-07T09:04:02;101492.13;;;11.94;64.59
76864;BME280;65834;52.364;9.754;2023-05-07T09:06:34;101489.59;;;11.92;64.67
76864;BME280;65834;52.364;9.754;2023-05-07T09:09:04;101487.25;;;11.89;64.93
76864;BME280;65834;52.364;9.754;2023-05-07T09:11:37;101494.19;;;11.92;64.90
76864;BME280;65834;52.364;9.754;2023-05-07T09:14:07;101493.69;;;11.88;65.13
76864;BME280;65834;52.364;9.754;2023-05-07T09:16:40;101488.91;;;11.99;64.73
76864;BME280;65834;52.364;9.754;2023-05-07T09:19:10;101490.06;;;12.04;64.61
76864;BME280;65834;52.364;9.754;2023-05-07T09:21:44;101480.72;;;12.07;64.69
76864;BME280;65834;52.364;9.754;2023-05-07T09:24:15;101483.13;;;12.02;64.90
76864;BME280;65834;52.364;9.754;2023-05-07T09:26:48;101482.63;;;11.98;65.08
76864;BME280;65834;52.364;9.754;2023-05-07T09:29:18;101486.34;;;12.05;64.88
76864;BME280;65834;52.364;9.754;2023-05-07T09:31:47;101490.56;;;12.08;65.07
76864;BME280;65834;52.364;9.754;2023-05-07T09:34:17;101492.44;;;12.07;64.91
76864;BME280;65834;52.364;9.754;2023-05-07T09:36:47;101488.16;;;12.13;64.35
76864;BME280;65834;52.364;9.754;2023-05-07T09:39:17;101494.28;;;12.07;64.37
76864;BME280;65834;52.364;9.754;2023-05-07T09:41:49;101491.56;;;12.07;64.29
76864;BME280;65834;52.364;9.754;2023-05-07T09:44:31;101488.00;;;12.06;64.41
76864;BME280;65834;52.364;9.754;2023-05-07T09:47:05;101485.13;;;12.08;64.26
76864;BME280;65834;52.364;9.754;2023-05-07T09:49:41;101483.44;;;12.07;64.31
76864;BME280;65834;52.364;9.754;2023-05-07T09:52:20;101482.94;;;12.03;64.32
76864;BME280;65834;52.364;9.754;2023-05-07T09:54:53;101489.22;;;12.04;64.50
76864;BME280;65834;52.364;9.754;2023-05-07T09:57:30;101491.28;;;12.02;64.54
76864;BME280;65834;52.364;9.754;2023-05-07T10:00:06;101490.91;;;12.05;63.97
76864;BME280;65834;52.364;9.754;2023-05-07T10:02:49;101493.97;;;12.02;64.42
76864;BME280;65834;52.364;9.754;2023-05-07T10:05:27;101492.44;;;12.07;64.40
76864;BME280;65834;52.364;9.754;2023-05-07T10:07:59;101482.59;;;12.06;64.50
76864;BME280;65834;52.364;9.754;2023-05-07T10:10:32;101489.91;;;12.06;64.56
76864;BME280;65834;52.364;9.754;2023-05-07T10:13:08;101488.88;;;12.07;64.55
76864;BME280;65834;52.364;9.754;2023-05-07T10:15:42;101494.44;;;12.13;64.51
76864;BME280;65834;52.364;9.754;2023-05-07T10:18:13;101496.13;;;12.14;64.60
76864;BME280;65834;52.364;9.754;2023-05-07T10:20:47;101495.22;;;12.22;64.13
76864;BME280;65834;52.364;9.754;2023-05-07T10:23:21;101496.94;;;12.23;64.04
76864;BME280;65834;52.364;9.754;2023-05-07T10:25:56;101502.34;;;12.23;63.97
76864;BME280;65834;52.364;9.754;2023-05-07T10:28:36;101500.50;;;12.23;64.38
76864;BME280;65834;52.364;9.754;2023-05-07T10:31:36;101501.13;;;12.33;64.18
76864;BME280;65834;52.364;9.754;2023-05-07T10:34:11;101502.66;;;12.36;63.86
76864;BME280;65834;52.364;9.754;2023-05-07T10:36:44;101504.16;;;12.38;63.76
76864;BME280;65834;52.364;9.754;2023-05-07T10:39:14;101511.75;;;12.43;63.66
76864;BME280;65834;52.364;9.754;2023-05-07T10:41:44;101510.59;;;12.37;63.50
76864;BME280;65834;52.364;9.754;2023-05-07T10:44:27;101511.28;;;12.39;63.49
76864;BME280;65834;52.364;9.754;2023-05-07T10:47:05;101512.09;;;12.40;63.52
76864;BME280;65834;52.364;9.754;2023-05-07T10:50:21;101514.00;;;12.39;63.64
76864;BME280;65834;52.364;9.754;2023-05-07T10:53:23;101502.94;;;12.41;63.71
76864;BME280;65834;52.364;9.754;2023-05-07T10:56:26;101509.03;;;12.43;63.57
76864;BME280;65834;52.364;9.754;2023-05-07T10:59:34;101506.66;;;12.40;63.45
76864;BME280;65834;52.364;9.754;2023-05-07T11:02:20;101512.44;;;12.45;63.39
76864;BME280;65834;52.364;9.754;2023-05-07T11:05:20;101507.84;;;12.45;63.44
76864;BME280;65834;52.364;9.754;2023-05-07T11:08:03;101516.66;;;12.47;63.48
76864;BME280;65834;52.364;9.754;2023-05-07T11:10:51;101520.72;;;12.52;63.08
76864;BME280;65834;52.364;9.754;2023-05-07T11:13:43;101518.00;;;12.52;63.23
76864;BME280;65834;52.364;9.754;2023-05-07T11:16:40;101517.16;;;12.51;63.34
76864;BME280;65834;52.364;9.754;2023-05-07T11:19:49;101511.84;;;12.58;63.31
76864;BME280;65834;52.364;9.754;2023-05-07T11:22:37;101516.94;;;12.61;63.16
76864;BME280;65834;52.364;9.754;2023-05-07T11:25:22;101523.00;;;12.63;62.87
76864;BME280;65834;52.364;9.754;2023-05-07T11:28:04;101520.44;;;12.69;62.77
76864;BME280;65834;52.364;9.754;2023-05-07T11:30:42;101511.28;;;12.70;62.50
76864;BME280;65834;52.364;9.754;2023-05-07T11:33:19;101525.91;;;12.61;63.03
76864;BME280;65834;52.364;9.754;2023-05-07T11:35:53;101535.34;;;12.73;62.45
76864;BME280;65834;52.364;9.754;2023-05-07T11:38:29;101519.06;;;12.73;62.09
76864;BME280;65834;52.364;9.754;2023-05-07T11:40:59;101523.63;;;12.73;62.35
76864;BME280;65834;52.364;9.754;2023-05-07T11:43:32;101532.38;;;12.83;62.00
76864;BME280;65834;52.364;9.754;2023-05-07T11:46:07;101526.94;;;12.83;61.70
76864;BME280;65834;52.364;9.754;2023-05-07T11:48:40;101524.06;;;12.84;61.98
76864;BME280;65834;52.364;9.754;2023-05-07T11:51:09;101518.91;;;12.89;61.83
76864;BME280;65834;52.364;9.754;2023-05-07T11:53:41;101517.78;;;12.84;61.70
76864;BME280;65834;52.364;9.754;2023-05-07T11:56:12;101520.78;;;12.89;61.66
76864;BME280;65834;52.364;9.754;2023-05-07T11:58:43;101513.50;;;12.89;61.83
76864;BME280;65834;52.364;9.754;2023-05-07T12:01:14;101511.63;;;12.90;61.90
76864;BME280;65834;52.364;9.754;2023-05-07T12:03:47;101518.91;;;12.89;61.63
76864;BME280;65834;52.364;9.754;2023-05-07T12:06:18;101513.97;;;12.93;61.58
76864;BME280;65834;52.364;9.754;2023-05-07T12:08:47;101523.03;;;12.85;62.16
76864;BME280;65834;52.364;9.754;2023-05-07T12:11:22;101521.41;;;12.99;61.51
76864;BME280;65834;52.364;9.754;2023-05-07T12:13:54;101511.38;;;12.99;61.42
76864;BME280;65834;52.364;9.754;2023-05-07T12:16:25;101522.63;;;12.96;61.59
76864;BME280;65834;52.364;9.754;2023-05-07T12:18:58;101521.59;;;12.97;61.51
76864;BME280;65834;52.364;9.754;2023-05-07T12:21:29;101528.91;;;12.97;61.88
76864;BME280;65834;52.364;9.754;2023-05-07T12:23:58;101521.72;;;13.04;61.68
76864;BME280;65834;52.364;9.754;2023-05-07T12:26:28;101528.50;;;13.08;61.21
76864;BME280;65834;52.364;9.754;2023-05-07T12:28:57;101522.19;;;13.07;61.44
76864;BME280;65834;52.364;9.754;2023-05-07T12:31:27;101532.53;;;13.12;61.41
76864;BME280;65834;52.364;9.754;2023-05-07T12:33:59;101537.41;;;13.17;60.83
76864;BME280;65834;52.364;9.754;2023-05-07T12:36:36;101540.03;;;13.10;61.03
76864;BME280;65834;52.364;9.754;2023-05-07T12:39:06;101530.53;;;13.06;61.11
76864;BME280;65834;52.364;9.754;2023-05-07T12:41:52;101521.19;;;13.09;61.39
76864;BME280;65834;52.364;9.754;2023-05-07T12:44:22;101525.59;;;13.10;61.52
76864;BME280;65834;52.364;9.754;2023-05-07T12:46:52;101528.13;;;13.11;61.54
76864;BME280;65834;52.364;9.754;2023-05-07T12:49:25;101532.72;;;13.11;61.46
76864;BME280;65834;52.364;9.754;2023-05-07T12:51:54;101540.97;;;13.17;61.36
76864;BME280;65834;52.364;9.754;2023-05-07T12:54:28;101528.63;;;13.15;61.34
76864;BME280;65834;52.364;9.754;2023-05-07T12:57:01;101521.47;;;13.14;61.75
76864;BME280;65834;52.364;9.754;2023-05-07T12:59:33;101519.75;;;13.21;61.02
76864;BME280;65834;52.364;9.754;2023-05-07T13:02:02;101519.19;;;13.25;60.88
76864;BME280;65834;52.364;9.754;2023-05-07T13:04:36;101518.22;;;13.18;60.97
76864;BME280;65834;52.364;9.754;2023-05-07T13:07:06;101519.00;;;13.27;61.05
76864;BME280;65834;52.364;9.754;2023-05-07T13:09:36;101518.47;;;13.31;60.66
76864;BME280;65834;52.364;9.754;2023-05-07T13:12:06;101533.06;;;13.30;60.73
76864;BME280;65834;52.364;9.754;2023-05-07T13:14:35;101521.19;;;13.31;60.58
76864;BME280;65834;52.364;9.754;2023-05-07T13:17:05;101528.41;;;13.39;60.21